Terminal Aerodrome Forecast
Issued by NWS

Home | Current Version | Previous Version | Text Only | Print | Product List | Glossary On
Versions: 1 2 3 4 5 6 7 8 9 10 11 12 13 14 15 16 17 18 19 20 21 22 23
000
FTUS41 KPBZ 251547 AAB
TAFZZV
TAF AMD
KZZV 251547Z 2516/2612 24008G18KT P6SM SCT025
     FM251800 25006KT P6SM VCTS BKN040CB
     FM260000 26003KT P6SM BKN250
     FM260400 29003KT 3SM BR SCT003
     FM261000 34003KT 1SM BR BKN003=

USA.gov is the U.S. government's official web portal to all federal, state and local government web resources and services.